Terminal Aerodrome Forecast
Issued by NWS

Home | Current Version | Previous Version | Text Only | Print | Product List | Glossary On
Versions: 1 2 3 4 5 6 7 8 9 10 11 12 13 14 15
510
FTUS42 KMLB 232341
TAFISM
TAF
KISM 232341Z 2400/2424 20006KT P6SM VCSH BKN015
     FM240200 35005KT 6SM BR BKN009 OVC020
     FM240600 34005KT 4SM BR BKN004 OVC010
     FM241500 36007KT P6SM VCSH BKN015
     FM241800 34007KT P6SM BKN040=

USA.gov is the U.S. government's official web portal to all federal, state and local government web resources and services.